createdAt,value
2022-12-18T00:00:06.833Z,101623.64
2022-12-18T00:05:10.017Z,101628.27
2022-12-18T00:10:15.485Z,101635.49
2022-12-18T00:15:18.421Z,101635.45
2022-12-18T00:20:26.537Z,101646.35
2022-12-18T00:25:29.432Z,101659.23
2022-12-18T00:30:32.257Z,101669.40
2022-12-18T00:35:35.033Z,101673.79
2022-12-18T00:40:37.820Z,101677.84
2022-12-18T00:45:40.689Z,101680.41
2022-12-18T00:50:43.576Z,101688.92
2022-12-18T00:55:47.027Z,101694.95
2022-12-18T01:00:49.894Z,101703.13
2022-12-18T01:05:52.827Z,101705.58
2022-12-18T01:10:55.610Z,101701.44
2022-12-18T01:15:58.457Z,101707.31
2022-12-18T01:21:01.493Z,101706.10
2022-12-18T01:26:15.554Z,101715.95
2022-12-18T01:31:20.535Z,101726.11
2022-12-18T01:36:25.222Z,101735.86
2022-12-18T01:41:52.348Z,101746.70
2022-12-18T01:46:55.147Z,101756.23
2022-12-18T01:51:57.969Z,101761.88
2022-12-18T01:57:02.096Z,101761.03
2022-12-18T02:02:05.050Z,101756.23
2022-12-18T02:07:19.970Z,101756.68
2022-12-18T02:12:25.687Z,101763.24
2022-12-18T02:17:36.407Z,101771.09
2022-12-18T02:22:45.964Z,101770.46
2022-12-18T02:27:51.986Z,101773.97
2022-12-18T02:32:57.336Z,101783.89
2022-12-18T02:38:01.336Z,101788.73
2022-12-18T02:43:09.720Z,101787.98
2022-12-18T02:48:12.569Z,101783.35
2022-12-18T02:53:43.664Z,101792.72
2022-12-18T02:59:31.717Z,101812.93
2022-12-18T03:05:05.189Z,101817.23
2022-12-18T03:10:12.798Z,101822.61
2022-12-18T03:15:24.339Z,101829.74
2022-12-18T03:20:30.346Z,101834.82
2022-12-18T03:25:35.840Z,101846.50
2022-12-18T03:30:42.042Z,101841.29
2022-12-18T03:35:45.240Z,101837.80
2022-12-18T03:40:51.133Z,101842.47
2022-12-18T03:46:06.503Z,101842.67
2022-12-18T03:51:22.924Z,101852.80
2022-12-18T03:56:30.852Z,101861.75
2022-12-18T04:01:38.719Z,101867.01
2022-12-18T04:06:44.661Z,101864.52
2022-12-18T04:11:48.699Z,101868.35
2022-12-18T04:16:51.461Z,101868.87
2022-12-18T04:21:54.322Z,101881.39
2022-12-18T04:26:57.158Z,101883.98
2022-12-18T04:32:00.025Z,101879.64
2022-12-18T04:37:03.217Z,101886.41
2022-12-18T04:42:06.160Z,101897.76
2022-12-18T04:47:08.991Z,101909.97
2022-12-18T04:52:11.776Z,101913.55
2022-12-18T04:57:14.769Z,101916.33
2022-12-18T05:02:17.731Z,101919.70
2022-12-18T05:07:20.715Z,101918.49
2022-12-18T05:12:24.738Z,101920.36
2022-12-18T05:17:27.533Z,101923.52
2022-12-18T05:22:30.306Z,101928.25
2022-12-18T05:27:33.213Z,101936.21
2022-12-18T05:32:35.985Z,101940.79
2022-12-18T05:37:42.945Z,101948.66
2022-12-18T05:42:48.288Z,101958.89
2022-12-18T05:47:51.052Z,101970.14
2022-12-18T05:52:53.817Z,101963.60
2022-12-18T05:57:56.610Z,101971.03
2022-12-18T06:03:00.438Z,101974.49
2022-12-18T06:08:03.427Z,101977.36
2022-12-18T06:13:07.154Z,101989.00
2022-12-18T06:18:10.052Z,101995.96
2022-12-18T06:23:12.908Z,101998.27
2022-12-18T06:28:15.692Z,102008.39
2022-12-18T06:33:18.565Z,102003.58
2022-12-18T06:38:21.389Z,102006.94
2022-12-18T06:43:24.165Z,102014.48
2022-12-18T06:48:26.986Z,102019.33
2022-12-18T06:53:30.568Z,102025.39
2022-12-18T06:58:34.158Z,102030.30
2022-12-18T07:03:38.431Z,102036.60
2022-12-18T07:08:41.549Z,102053.61
2022-12-18T07:13:44.930Z,102057.09
2022-12-18T07:18:48.151Z,102068.23
2022-12-18T07:23:53.696Z,102075.98
2022-12-18T07:28:59.800Z,102076.34
2022-12-18T07:34:02.675Z,102083.41
2022-12-18T07:39:05.642Z,102092.96
2022-12-18T07:44:11.772Z,102091.30
2022-12-18T07:49:14.741Z,102096.48
2022-12-18T07:54:18.270Z,102099.95
2022-12-18T07:59:21.091Z,102099.41
2022-12-18T08:04:23.952Z,102100.52
2022-12-18T08:09:29.058Z,102106.46
2022-12-18T08:14:34.392Z,102101.77
2022-12-18T08:19:37.156Z,102102.50
2022-12-18T08:24:39.967Z,102113.54
2022-12-18T08:29:44.291Z,102121.21
2022-12-18T08:34:47.079Z,102125.91
2022-12-18T08:39:50.032Z,102138.89
2022-12-18T08:44:52.939Z,102146.97
2022-12-18T08:49:55.943Z,102154.20
2022-12-18T08:54:58.772Z,102157.12
2022-12-18T09:00:01.597Z,102163.60
2022-12-18T09:05:05.247Z,102168.48
2022-12-18T09:10:08.568Z,102181.94
2022-12-18T09:15:11.477Z,102187.70
2022-12-18T09:20:14.325Z,102179.14
2022-12-18T09:25:18.044Z,102168.64
2022-12-18T09:30:21.164Z,102177.80
2022-12-18T09:35:26.163Z,102190.78
2022-12-18T09:40:37.398Z,102192.34
2022-12-18T09:45:47.293Z,102188.64
2022-12-18T09:50:52.691Z,102194.13
2022-12-18T09:55:57.527Z,102198.55
2022-12-18T10:01:00.689Z,102201.80
2022-12-18T10:06:14.838Z,102192.83
2022-12-18T10:11:26.922Z,102176.73
2022-12-18T10:16:44.688Z,102178.26
2022-12-18T10:22:11.701Z,102181.76
2022-12-18T10:27:22.685Z,102188.40
2022-12-18T10:32:31.984Z,102181.77
2022-12-18T10:37:34.856Z,102177.57
2022-12-18T10:42:39.456Z,102176.83
2022-12-18T10:47:49.426Z,102176.11
2022-12-18T10:53:00.520Z,102171.26
2022-12-18T10:58:30.129Z,102173.67
2022-12-18T11:03:39.128Z,102184.80
2022-12-18T11:08:44.670Z,102187.07
2022-12-18T11:14:12.750Z,102173.69
2022-12-18T11:19:45.761Z,102180.95
2022-12-18T11:25:34.505Z,102181.11
2022-12-18T11:30:39.079Z,102197.14
2022-12-18T11:35:58.614Z,102196.34
2022-12-18T11:41:05.312Z,102194.80
2022-12-18T11:46:24.202Z,102194.71
2022-12-18T11:51:33.574Z,102190.21
2022-12-18T11:56:38.153Z,102190.89
2022-12-18T12:01:56.559Z,102206.62
2022-12-18T12:07:20.873Z,102216.79
2022-12-18T12:12:57.520Z,102221.06
2022-12-18T12:18:16.160Z,102222.72
2022-12-18T12:23:21.544Z,102226.98
2022-12-18T12:28:53.852Z,102232.63
2022-12-18T12:34:18.656Z,102241.85
2022-12-18T12:39:31.670Z,102244.36
2022-12-18T12:44:52.772Z,102241.17
2022-12-18T12:50:02.911Z,102231.34
2022-12-18T12:55:17.673Z,102233.84
2022-12-18T13:00:21.374Z,102234.42
2022-12-18T13:05:46.543Z,102235.95
2022-12-18T13:11:11.415Z,102233.29
2022-12-18T13:16:21.118Z,102242.65
2022-12-18T13:21:31.595Z,102247.61
2022-12-18T13:26:35.589Z,102258.29
2022-12-18T13:31:42.287Z,102267.87
2022-12-18T13:36:46.884Z,102267.05
2022-12-18T13:41:53.599Z,102271.68
2022-12-18T13:46:57.055Z,102273.85
2022-12-18T13:52:00.221Z,102271.71
2022-12-18T13:57:07.359Z,102274.73
2022-12-18T14:02:13.249Z,102286.69
2022-12-18T14:07:19.291Z,102298.23
2022-12-18T14:12:44.810Z,102310.40
2022-12-18T14:18:16.403Z,102317.27
2022-12-18T14:23:46.176Z,102326.95
2022-12-18T14:28:49.163Z,102331.29
2022-12-18T14:33:53.281Z,102337.67
2022-12-18T14:39:00.230Z,102338.92
2022-12-18T14:44:07.467Z,102341.88
2022-12-18T14:49:33.876Z,102340.08
2022-12-18T14:54:38.550Z,102342.71
2022-12-18T14:59:41.384Z,102343.02
2022-12-18T15:04:45.143Z,102346.40
2022-12-18T15:10:09.879Z,102347.41
2022-12-18T15:15:38.645Z,102348.20
2022-12-18T15:21:00.291Z,102349.60
2022-12-18T15:26:04.932Z,102349.80
2022-12-18T15:31:17.805Z,102350.38
2022-12-18T15:36:26.798Z,102347.42
2022-12-18T15:41:35.787Z,102351.00
2022-12-18T15:46:39.125Z,102351.04
2022-12-18T15:51:43.390Z,102348.16
2022-12-18T15:57:05.988Z,102335.86
2022-12-18T16:02:17.526Z,102348.64
2022-12-18T16:07:24.889Z,102347.41
2022-12-18T16:12:29.104Z,102344.29
2022-12-18T16:17:32.248Z,102341.52
2022-12-18T16:22:35.069Z,102352.92
2022-12-18T16:27:37.901Z,102356.25
2022-12-18T16:32:41.088Z,102352.69
2022-12-18T16:37:46.341Z,102352.50
2022-12-18T16:42:49.542Z,102360.71
2022-12-18T16:47:54.619Z,102341.19
2022-12-18T16:52:57.454Z,102352.09
2022-12-18T16:58:00.255Z,102352.66
2022-12-18T17:03:03.333Z,102349.20
2022-12-18T17:08:06.581Z,102355.59
2022-12-18T17:13:10.381Z,102368.67
2022-12-18T17:18:13.173Z,102391.11
2022-12-18T17:23:15.980Z,102400.17
2022-12-18T17:28:20.525Z,102389.65
2022-12-18T17:33:25.122Z,102380.84
2022-12-18T17:38:27.907Z,102381.91
2022-12-18T17:43:31.206Z,102378.98
2022-12-18T17:48:34.144Z,102362.95
2022-12-18T17:53:41.819Z,102352.02
2022-12-18T17:58:45.148Z,102349.05
2022-12-18T18:03:50.361Z,102337.61
2022-12-18T18:08:57.667Z,102342.09
2022-12-18T18:14:01.007Z,102348.77
2022-12-18T18:19:09.632Z,102333.67
2022-12-18T18:24:14.736Z,102330.27
2022-12-18T18:29:20.326Z,102328.70
2022-12-18T18:34:26.483Z,102344.24
2022-12-18T18:39:29.778Z,102342.11
2022-12-18T18:44:32.865Z,102349.90
2022-12-18T18:49:35.698Z,102361.55
2022-12-18T18:54:44.322Z,102366.62
2022-12-18T18:59:55.031Z,102365.74
2022-12-18T19:04:57.924Z,102359.61
2022-12-18T19:10:04.189Z,102354.69
2022-12-18T19:15:08.163Z,102354.91
2022-12-18T19:20:12.398Z,102357.35
2022-12-18T19:25:15.339Z,102354.55
2022-12-18T19:30:18.505Z,102357.67
2022-12-18T19:35:21.319Z,102369.38
2022-12-18T19:40:25.186Z,102373.53
2022-12-18T19:45:29.093Z,102381.91
2022-12-18T19:50:32.169Z,102387.61
2022-12-18T19:55:42.019Z,102389.74
2022-12-18T20:00:48.095Z,102396.73
2022-12-18T20:05:50.934Z,102390.80
2022-12-18T20:10:54.149Z,102389.26
2022-12-18T20:15:57.565Z,102386.35
2022-12-18T20:21:05.504Z,102382.06
2022-12-18T20:26:10.139Z,102375.77
2022-12-18T20:31:14.158Z,102380.82
2022-12-18T20:42:12.946Z,102362.94
2022-12-18T20:47:16.212Z,102368.23
2022-12-18T20:52:19.147Z,102378.35
2022-12-18T20:57:23.206Z,102387.91
2022-12-18T21:02:26.089Z,102390.14
2022-12-18T21:07:29.189Z,102394.52
2022-12-18T21:12:40.223Z,102376.98
2022-12-18T21:17:51.110Z,102357.75
2022-12-18T21:22:54.071Z,102346.27
2022-12-18T21:28:00.287Z,102339.64
2022-12-18T21:33:03.538Z,102341.52
2022-12-18T21:38:06.385Z,102334.86
2022-12-18T21:43:29.209Z,102334.05
2022-12-18T21:48:32.142Z,102342.63
2022-12-18T21:53:34.923Z,102355.64
2022-12-18T21:58:37.671Z,102370.77
2022-12-18T22:03:40.636Z,102370.32
2022-12-18T22:08:44.111Z,102368.95
2022-12-18T22:13:50.289Z,102366.46
2022-12-18T22:18:53.769Z,102367.83
2022-12-18T22:24:01.852Z,102366.44
2022-12-18T22:29:24.557Z,102364.58
2022-12-18T22:34:28.836Z,102355.14
2022-12-18T22:39:33.147Z,102352.86
2022-12-18T22:44:36.514Z,102355.60
2022-12-18T22:49:39.679Z,102356.91
2022-12-18T22:54:42.487Z,102358.81
2022-12-18T22:59:45.365Z,102357.23
2022-12-18T23:04:48.200Z,102359.10
2022-12-18T23:09:51.377Z,102367.31
2022-12-18T23:15:02.353Z,102367.09
2022-12-18T23:20:07.249Z,102358.21
2022-12-18T23:25:10.103Z,102361.48
2022-12-18T23:30:13.454Z,102364.88
2022-12-18T23:35:17.898Z,102363.55
2022-12-18T23:40:20.700Z,102364.33
2022-12-18T23:45:23.907Z,102362.86
2022-12-18T23:50:29.457Z,102355.22
2022-12-18T23:55:38.740Z,102349.48
